Time;durP1;ratioP1;P1;durP2;ratioP2;P2;SDS_P1;SDS_P2;PMS_P1;PMS_P2;Temp;Humidity;BMP_temperature;BMP_pressure;BME280_temperature;BME280_humidity;BME280_pressure;Samples;Min_cycle;Max_cycle;Signal;HPM_P1;HPM_P2
2022/01/19 00:00:23;;;;;;;8.77;7.80;;;4.00;50.40;;;;;;20667;6857;121342;-78
2022/01/19 00:02:49;;;;;;;10.27;9.40;;;3.90;50.70;;;;;;20483;6857;338288;-80
2022/01/19 00:05:14;;;;;;;11.43;10.48;;;4.10;50.90;;;;;;20490;6857;278261;-79
2022/01/19 00:07:41;;;;;;;11.15;10.15;;;4.60;50.40;;;;;;20492;6857;307841;-80
2022/01/19 00:10:10;;;;;;;9.57;8.77;;;4.80;49.60;;;;;;20676;6857;119291;-79
2022/01/19 00:12:33;;;;;;;9.80;7.93;;;4.50;49.80;;;;;;20686;6857;117227;-80
2022/01/19 00:14:59;;;;;;;9.30;8.40;;;4.50;49.90;;;;;;20700;6857;118382;-80
2022/01/19 00:17:24;;;;;;;8.83;7.77;;;4.20;50.10;;;;;;20691;6857;117196;-79
2022/01/19 00:19:50;;;;;;;8.90;8.23;;;4.00;50.40;;;;;;20700;6857;116009;-80
2022/01/19 00:22:15;;;;;;;11.17;10.23;;;3.80;50.60;;;;;;20469;6857;320951;-80
2022/01/19 00:24:43;;;;;;;10.00;9.07;;;3.90;51.20;;;;;;20693;6857;117549;-86
2022/01/19 00:27:07;;;;;;;12.00;10.90;;;3.90;50.50;;;;;;20485;6857;278588;-80
2022/01/19 00:29:33;;;;;;;12.07;10.97;;;4.10;51.10;;;;;;20487;6857;294043;-78
2022/01/19 00:31:58;;;;;;;10.50;9.50;;;4.30;50.00;;;;;;20721;6857;117082;-79
2022/01/19 00:34:24;;;;;;;12.87;11.73;;;4.30;49.80;;;;;;20489;6858;442900;-80
2022/01/19 00:36:49;;;;;;;12.70;10.38;;;4.30;50.10;;;;;;20700;6858;121553;-79
2022/01/19 00:39:16;;;;;;;9.57;8.87;;;4.20;50.00;;;;;;20720;6858;120566;-79
2022/01/19 00:41:42;;;;;;;12.30;11.27;;;4.00;50.40;;;;;;20484;6858;307962;-78
2022/01/19 00:44:08;;;;;;;12.90;11.60;;;4.30;50.40;;;;;;20468;6858;306986;-83
2022/01/19 00:46:34;;;;;;;10.43;9.53;;;4.30;50.30;;;;;;20713;6858;117079;-78
2022/01/19 00:48:59;;;;;;;9.55;8.65;;;4.30;50.10;;;;;;20747;6858;117243;-79
2022/01/19 00:51:26;;;;;;;9.87;8.60;;;4.00;50.40;;;;;;20741;6858;116978;-79
2022/01/19 00:53:52;;;;;;;12.25;11.18;;;3.70;50.80;;;;;;20525;6858;307411;-78
2022/01/19 00:56:17;;;;;;;9.50;8.70;;;3.90;51.40;;;;;;20658;6858;126339;-80
2022/01/19 00:58:43;;;;;;;12.77;11.47;;;3.80;51.10;;;;;;20360;6882;328986;-79
2022/01/19 01:01:08;;;;;;;10.43;9.43;;;4.00;51.30;;;;;;20658;6858;117786;-79
2022/01/19 01:03:34;;;;;;;12.20;11.20;;;3.90;51.00;;;;;;20451;6858;289708;-78
2022/01/19 01:06:00;;;;;;;12.52;11.32;;;4.00;51.40;;;;;;20462;6858;308763;-79
2022/01/19 01:08:29;;;;;;;11.07;9.87;;;4.30;50.80;;;;;;20674;6856;118581;-79
2022/01/19 01:10:54;;;;;;;10.83;8.93;;;4.30;50.80;;;;;;20678;6857;117332;-79
2022/01/19 01:13:30;;;;;;;10.00;8.97;;;4.10;51.20;;;;;;20697;6857;117363;-80
2022/01/19 01:16:00;;;;;;;9.77;8.87;;;3.90;51.60;;;;;;20655;6857;117858;-79
2022/01/19 01:18:18;;;;;;;9.23;8.35;;;3.80;52.00;;;;;;20642;6857;118111;-80
2022/01/19 01:20:42;;;;;;;9.03;8.27;;;3.70;52.40;;;;;;20683;6857;117213;-82
2022/01/19 01:23:08;;;;;;;9.27;7.70;;;3.70;52.70;;;;;;20690;6857;117201;-79
2022/01/19 01:25:33;;;;;;;10.10;9.10;;;3.70;52.90;;;;;;20486;6857;279109;-79
2022/01/19 01:27:59;;;;;;;10.97;9.20;;;4.00;53.00;;;;;;20489;6857;278548;-80
2022/01/19 01:30:24;;;;;;;8.70;7.90;;;4.50;52.20;;;;;;20676;6857;117460;-80
2022/01/19 01:32:51;;;;;;;8.97;8.10;;;4.80;51.50;;;;;;20469;6857;337621;-80
2022/01/19 01:35:18;;;;;;;9.25;8.40;;;4.80;51.50;;;;;;20483;6857;335793;-79
2022/01/19 01:37:45;;;;;;;9.80;7.40;;;5.20;51.00;;;;;;20692;6857;117532;-80
2022/01/19 01:40:13;;;;;;;8.60;7.70;;;5.20;50.70;;;;;;20458;6857;308877;-78
2022/01/19 01:42:36;;;;;;;9.00;7.20;;;5.40;50.40;;;;;;20681;6857;117129;-82
2022/01/19 01:45:03;;;;;;;7.93;7.22;;;5.30;50.20;;;;;;20477;6858;307755;-80
2022/01/19 01:47:30;;;;;;;8.00;7.23;;;5.40;50.30;;;;;;20683;6858;117537;-81
2022/01/19 01:55:10;;;;;;;8.20;6.87;;;5.50;49.70;;;;;;20694;6858;117614;-79
2022/01/19 01:57:36;;;;;;;7.67;6.97;;;5.30;50.00;;;;;;20664;6858;117732;-80
2022/01/19 02:00:01;;;;;;;8.77;8.00;;;5.10;50.30;;;;;;20459;6858;302008;-79
2022/01/19 02:02:28;;;;;;;8.82;7.93;;;5.30;50.00;;;;;;20439;6858;308484;-80
2022/01/19 02:04:54;;;;;;;9.17;7.83;;;5.60;48.90;;;;;;20476;6858;340689;-80
2022/01/19 02:09:54;;;;;;;9.03;7.90;;;5.70;47.90;;;;;;20470;6858;307713;-81
2022/01/19 02:23:23;;;;;;;11.97;10.83;;;5.60;47.70;;;;;;20497;6857;309739;-83
2022/01/19 02:25:52;;;;;;;9.70;8.80;;;5.70;48.00;;;;;;20665;6857;117368;-80
2022/01/19 02:40:10;;;;;;;12.10;10.90;;;4.70;49.90;;;;;;20460;6857;341959;-80
2022/01/19 02:42:06;;;;;;;11.27;8.87;;;4.60;49.00;;;;;;20691;6857;116295;-82
2022/01/19 02:46:32;;;;;;;11.60;10.60;;;4.30;49.50;;;;;;20293;6857;281831;-81
2022/01/19 02:49:43;;;;;;;11.20;9.00;;;4.30;50.20;;;;;;20732;6858;117333;-79
2022/01/19 02:52:09;;;;;;;10.60;8.80;;;4.10;50.40;;;;;;20704;6858;121136;-78
2022/01/19 02:54:36;;;;;;;11.30;9.27;;;3.90;50.60;;;;;;20735;6858;117570;-79
2022/01/19 02:57:02;;;;;;;8.93;8.13;;;3.70;50.90;;;;;;20605;6882;117472;-79
2022/01/19 03:10:12;;;;;;;11.60;10.03;;;3.40;51.40;;;;;;20667;6858;117714;-79
2022/01/19 03:12:38;;;;;;;14.57;13.10;;;3.40;50.80;;;;;;20474;6858;278702;-79
2022/01/19 03:15:03;;;;;;;14.85;13.25;;;3.60;51.10;;;;;;20477;6858;278219;-81
2022/01/19 03:17:29;;;;;;;14.73;13.27;;;3.90;50.80;;;;;;20464;6858;307846;-79
2022/01/19 03:19:55;;;;;;;11.43;10.30;;;4.20;50.30;;;;;;20695;6858;117072;-79
2022/01/19 03:22:26;;;;;;;14.30;12.90;;;4.00;50.00;;;;;;20460;6858;296497;-79
2022/01/19 03:24:51;;;;;;;11.95;10.75;;;4.10;50.40;;;;;;20677;6858;117392;-80
2022/01/19 03:27:13;;;;;;;13.47;12.20;;;3.90;50.20;;;;;;20460;6858;307591;-79
2022/01/19 03:29:38;;;;;;;10.93;9.93;;;4.00;50.80;;;;;;20682;6858;117912;-80
2022/01/19 03:32:04;;;;;;;10.85;9.75;;;3.90;50.70;;;;;;20693;6856;122577;-80
2022/01/19 03:34:30;;;;;;;12.87;11.60;;;3.70;51.10;;;;;;20463;6857;292242;-80
2022/01/19 03:36:56;;;;;;;12.77;11.60;;;3.80;51.20;;;;;;20479;6857;306825;-79
2022/01/19 03:39:21;;;;;;;12.88;11.77;;;4.00;50.40;;;;;;20479;6857;278197;-79
2022/01/19 03:41:46;;;;;;;13.00;11.77;;;4.30;50.10;;;;;;20474;6857;340749;-80
2022/01/19 03:44:12;;;;;;;11.03;9.90;;;4.40;49.50;;;;;;20673;6857;121945;-79
2022/01/19 03:46:46;;;;;;;12.13;11.02;;;4.20;49.50;;;;;;20479;6857;308486;-79
2022/01/19 03:49:12;;;;;;;13.02;11.90;;;4.20;49.60;;;;;;20456;6857;321393;-80
2022/01/19 03:51:36;;;;;;;10.70;9.60;;;4.30;49.60;;;;;;20660;6857;116949;-80
2022/01/19 03:54:02;;;;;;;12.47;9.50;;;4.10;49.50;;;;;;20685;6857;118981;-80
2022/01/19 03:56:27;;;;;;;13.33;12.00;;;3.70;49.90;;;;;;20456;6857;308063;-80
2022/01/19 03:58:53;;;;;;;13.38;12.18;;;3.70;50.00;;;;;;20475;6857;307330;-80
2022/01/19 04:01:19;;;;;;;10.15;9.13;;;3.90;50.10;;;;;;20686;6857;118053;-80
2022/01/19 04:04:09;;;;;;;11.75;10.27;;;3.80;50.00;;;;;;20676;6857;117129;-80
2022/01/19 04:06:29;;;;;;;11.93;10.73;;;3.50;50.50;;;;;;20618;6857;118299;-80
2022/01/19 04:08:43;;;;;;;15.00;13.60;;;3.20;51.00;;;;;;20392;6858;313025;-80
2022/01/19 04:11:08;;;;;;;11.87;10.03;;;3.30;51.80;;;;;;20680;6858;117508;-80
2022/01/19 04:13:44;;;;;;;14.27;12.87;;;3.30;51.70;;;;;;20476;6858;279447;-80
2022/01/19 04:15:59;;;;;;;14.30;12.90;;;3.40;52.40;;;;;;20450;6858;277880;-80
2022/01/19 04:18:26;;;;;;;13.57;12.33;;;3.70;52.00;;;;;;20447;6858;305496;-80
2022/01/19 04:20:53;;;;;;;13.35;12.15;;;4.30;52.00;;;;;;20465;6858;307420;-81
2022/01/19 04:23:18;;;;;;;16.00;11.73;;;4.30;51.20;;;;;;20667;6858;117939;-80
2022/01/19 04:25:43;;;;;;;14.83;13.53;;;4.20;51.20;;;;;;20469;6858;277759;-80
2022/01/19 04:28:09;;;;;;;16.48;14.95;;;4.30;51.70;;;;;;20450;6858;307276;-80
2022/01/19 04:30:35;;;;;;;16.90;15.10;;;4.50;51.40;;;;;;20476;6858;278414;-81
2022/01/19 04:33:10;;;;;;;14.90;12.47;;;4.80;50.70;;;;;;20691;6858;117754;-80
2022/01/19 04:35:44;;;;;;;13.50;12.10;;;4.30;51.00;;;;;;20636;6858;117363;-80
2022/01/19 04:38:22;;;;;;;14.57;11.60;;;4.30;51.00;;;;;;20658;6858;117999;-80
2022/01/19 04:46:18;;;;;;;11.07;9.97;;;3.70;52.40;;;;;;20686;6857;118805;-80
2022/01/19 05:04:55;;;;;;;13.63;12.40;;;3.90;52.50;;;;;;20487;6857;291914;-83
2022/01/19 05:15:14;;;;;;;12.95;11.75;;;3.90;52.10;;;;;;20502;6857;329551;-83
2022/01/19 05:17:41;;;;;;;22.65;10.88;;;4.00;51.90;;;;;;20713;6857;118299;-83
2022/01/19 05:20:07;;;;;;;15.57;13.93;;;4.00;51.70;;;;;;20685;6858;124219;-83
2022/01/19 05:22:32;;;;;;;14.37;11.57;;;3.90;51.90;;;;;;20696;6858;117230;-83
2022/01/19 05:24:58;;;;;;;12.85;10.65;;;3.80;52.30;;;;;;20699;6858;118094;-83
2022/01/19 05:27:24;;;;;;;11.53;9.90;;;3.60;52.40;;;;;;20669;6858;117440;-83
2022/01/19 05:29:49;;;;;;;13.50;12.23;;;3.50;52.60;;;;;;20451;6858;281646;-83
2022/01/19 05:32:15;;;;;;;12.52;11.25;;;3.70;52.40;;;;;;20562;6858;117449;-83
2022/01/19 05:34:40;;;;;;;13.57;12.15;;;3.80;52.00;;;;;;20438;6858;286338;-84
2022/01/19 05:37:06;;;;;;;12.30;11.02;;;4.00;51.80;;;;;;20688;6858;122797;-83
2022/01/19 05:39:31;;;;;;;15.40;13.93;;;4.00;51.60;;;;;;20496;6858;310520;-84
2022/01/19 05:41:57;;;;;;;13.97;12.57;;;4.20;51.60;;;;;;20707;6858;117904;-83
2022/01/19 05:44:22;;;;;;;14.18;12.88;;;4.20;51.50;;;;;;20469;6858;307870;-84
2022/01/19 05:46:48;;;;;;;11.80;10.60;;;4.30;51.30;;;;;;20697;6858;117694;-83
2022/01/19 05:49:14;;;;;;;11.13;10.03;;;4.10;51.50;;;;;;20701;6858;117583;-85
2022/01/19 05:51:40;;;;;;;13.50;12.30;;;4.10;51.50;;;;;;20492;6858;307345;-83
2022/01/19 05:54:06;;;;;;;14.03;12.53;;;4.50;50.90;;;;;;20455;6856;278311;-83
2022/01/19 05:56:32;;;;;;;13.73;12.52;;;4.50;50.90;;;;;;20313;6870;338760;-83
2022/01/19 05:58:57;;;;;;;13.63;10.70;;;4.70;50.00;;;;;;20659;6866;119851;-83
2022/01/19 06:01:24;;;;;;;12.27;10.60;;;4.30;50.40;;;;;;20719;6845;120381;-83
2022/01/19 06:03:51;;;;;;;13.37;12.27;;;4.30;50.40;;;;;;20532;6846;309977;-83
2022/01/19 06:06:17;;;;;;;11.60;10.40;;;4.40;50.70;;;;;;20719;6846;117775;-84
2022/01/19 06:08:44;;;;;;;11.10;9.63;;;4.30;50.70;;;;;;20718;6846;117465;-84
2022/01/19 06:11:07;;;;;;;13.48;12.20;;;4.00;50.90;;;;;;20470;6846;336305;-84
2022/01/19 06:13:33;;;;;;;13.98;12.68;;;4.10;51.40;;;;;;20516;6846;301189;-84
2022/01/19 06:15:58;;;;;;;17.42;15.02;;;4.40;50.50;;;;;;20519;6846;278463;-85
2022/01/19 06:18:24;;;;;;;11.77;10.60;;;4.60;49.60;;;;;;20676;6846;116501;-84
2022/01/19 06:20:49;;;;;;;12.90;11.60;;;4.50;49.60;;;;;;20552;6846;342245;-84
2022/01/19 06:23:15;;;;;;;13.10;11.90;;;4.40;50.00;;;;;;20542;6846;307409;-85
2022/01/19 06:25:42;;;;;;;13.35;12.25;;;4.60;49.90;;;;;;20512;6846;341186;-85
2022/01/19 06:28:07;;;;;;;11.77;10.67;;;4.70;49.40;;;;;;20710;6846;119338;-84
2022/01/19 06:30:33;;;;;;;11.40;10.30;;;4.50;49.30;;;;;;20731;6846;117684;-83
2022/01/19 06:32:59;;;;;;;11.27;10.17;;;4.10;49.90;;;;;;20719;6846;118486;-84
2022/01/19 06:35:24;;;;;;;10.47;9.57;;;3.80;50.40;;;;;;20714;6846;117712;-86
2022/01/19 06:37:50;;;;;;;13.33;11.97;;;3.60;50.90;;;;;;20494;6846;307332;-85
2022/01/19 06:40:15;;;;;;;11.30;10.23;;;3.60;51.00;;;;;;20691;6846;121166;-85
2022/01/19 06:42:41;;;;;;;10.53;9.43;;;3.60;50.80;;;;;;20721;6846;120944;-85
2022/01/19 06:45:07;;;;;;;14.13;12.83;;;3.40;51.00;;;;;;20506;6846;329782;-88
2022/01/19 06:47:33;;;;;;;13.43;12.23;;;3.50;51.10;;;;;;20499;6846;329140;-84
2022/01/19 06:49:59;;;;;;;10.68;9.77;;;3.80;50.80;;;;;;20725;6846;117786;-86
2022/01/19 06:52:25;;;;;;;11.30;10.10;;;3.80;50.60;;;;;;20701;6846;117451;-86
2022/01/19 06:54:50;;;;;;;10.80;9.73;;;3.50;50.90;;;;;;20722;6846;117583;-85
2022/01/19 06:57:16;;;;;;;11.00;9.87;;;3.30;51.40;;;;;;20712;6846;118297;-85
2022/01/19 06:59:41;;;;;;;10.73;9.73;;;3.10;51.80;;;;;;20714;6846;117366;-86
2022/01/19 07:02:07;;;;;;;12.68;11.57;;;2.90;52.00;;;;;;20489;6846;284984;-85
2022/01/19 07:04:32;;;;;;;13.02;11.93;;;3.10;52.30;;;;;;20504;6846;308241;-87
2022/01/19 07:06:59;;;;;;;12.90;11.80;;;3.50;51.80;;;;;;20496;6844;337791;-86
2022/01/19 07:09:26;;;;;;;13.07;12.05;;;4.00;50.30;;;;;;20505;6845;307806;-88
2022/01/19 07:11:51;;;;;;;12.70;11.63;;;4.00;50.30;;;;;;20504;6845;283389;-84
2022/01/19 07:14:17;;;;;;;11.80;10.70;;;4.20;49.90;;;;;;20674;6845;117610;-88
2022/01/19 07:16:43;;;;;;;11.13;9.93;;;3.60;50.30;;;;;;20707;6846;117483;-89
2022/01/19 07:19:43;;;;;;;14.63;13.27;;;3.60;50.30;;;;;;20395;6846;282488;-87
2022/01/19 07:22:09;;;;;;;13.03;11.73;;;3.60;50.50;;;;;;20450;6846;122657;-88
2022/01/19 07:24:35;;;;;;;12.43;11.20;;;3.40;50.40;;;;;;20714;6846;119455;-87
2022/01/19 07:29:40;;;;;;;15.00;13.52;;;3.20;51.10;;;;;;20164;6846;280412;-86
2022/01/19 07:32:03;;;;;;;12.53;11.33;;;3.50;50.50;;;;;;20644;6846;117005;-86
2022/01/19 07:34:30;;;;;;;11.63;9.73;;;3.50;50.50;;;;;;20690;6846;118411;-86
2022/01/19 07:36:56;;;;;;;10.97;9.97;;;3.30;50.90;;;;;;20701;6846;117612;-85
2022/01/19 07:39:21;;;;;;;10.38;9.43;;;3.10;51.40;;;;;;20705;6846;117531;-85
2022/01/19 07:41:47;;;;;;;10.97;9.87;;;2.90;51.80;;;;;;20683;6846;117672;-85
2022/01/19 07:44:12;;;;;;;13.80;12.50;;;2.80;52.20;;;;;;20479;6846;309094;-86
2022/01/19 07:46:39;;;;;;;11.80;10.60;;;3.10;53.00;;;;;;20714;6846;116685;-86
2022/01/19 07:49:04;;;;;;;14.17;12.90;;;3.10;52.10;;;;;;20502;6846;313015;-86
2022/01/19 07:51:30;;;;;;;13.90;12.50;;;3.30;52.20;;;;;;20444;6846;309992;-86
2022/01/19 07:53:56;;;;;;;14.23;12.83;;;3.70;51.60;;;;;;20475;6846;337755;-86
2022/01/19 07:56:21;;;;;;;13.48;12.32;;;4.00;50.80;;;;;;20453;6846;308103;-86
2022/01/19 07:58:47;;;;;;;14.67;13.27;;;4.30;50.00;;;;;;20486;6846;308709;-87
2022/01/19 08:01:13;;;;;;;11.50;10.30;;;4.40;49.50;;;;;;20690;6846;117832;-86
2022/01/19 08:03:39;;;;;;;11.13;10.03;;;4.20;50.20;;;;;;20706;6846;117735;-86
2022/01/19 08:06:09;;;;;;;12.82;11.52;;;4.30;50.40;;;;;;20484;6846;297359;-87
2022/01/19 08:08:36;;;;;;;13.62;12.32;;;4.30;50.40;;;;;;20332;6846;292855;-89
2022/01/19 08:11:01;;;;;;;10.93;9.83;;;4.60;49.90;;;;;;20713;6846;117622;-84
2022/01/19 08:13:27;;;;;;;12.77;11.67;;;4.70;49.90;;;;;;20499;6846;278237;-86
2022/01/19 08:15:53;;;;;;;11.70;10.63;;;4.70;49.80;;;;;;20722;6846;117832;-85
2022/01/19 08:18:18;;;;;;;11.68;10.27;;;4.70;49.90;;;;;;20694;6844;119003;-86
2022/01/19 08:20:45;;;;;;;10.25;9.32;;;4.60;50.30;;;;;;20701;6845;117788;-86
2022/01/19 08:23:11;;;;;;;12.48;11.27;;;4.50;50.80;;;;;;20517;6845;308249;-86
2022/01/19 08:25:37;;;;;;;11.25;10.35;;;4.80;50.40;;;;;;20713;6845;117471;-86
2022/01/19 08:28:03;;;;;;;13.07;11.77;;;4.80;50.40;;;;;;20452;6846;278621;-86
2022/01/19 08:30:29;;;;;;;11.47;10.47;;;5.00;49.90;;;;;;20631;6846;117402;-86
2022/01/19 08:32:54;;;;;;;11.20;9.83;;;5.10;49.70;;;;;;20581;6846;118771;-87
2022/01/19 08:35:21;;;;;;;11.37;10.37;;;5.10;50.00;;;;;;20638;6846;118106;-86
2022/01/19 08:37:47;;;;;;;11.47;10.33;;;5.00;50.40;;;;;;20644;6846;117652;-86
2022/01/19 08:40:13;;;;;;;12.30;10.43;;;4.90;50.50;;;;;;20518;6846;124948;-86
2022/01/19 08:42:38;;;;;;;10.53;9.63;;;4.90;50.90;;;;;;20599;6846;118556;-86
2022/01/19 08:45:07;;;;;;;11.47;10.17;;;5.00;51.10;;;;;;20647;6846;118949;-87
2022/01/19 08:47:29;;;;;;;12.57;11.50;;;5.00;51.10;;;;;;20446;6846;278308;-88
2022/01/19 08:49:56;;;;;;;11.33;10.23;;;5.30;50.00;;;;;;20666;6846;117821;-88
2022/01/19 08:52:23;;;;;;;11.00;10.10;;;5.50;49.60;;;;;;20684;6846;117379;-91
2022/01/19 08:54:49;;;;;;;12.77;11.47;;;5.70;49.10;;;;;;20475;6846;279527;-88
2022/01/19 08:57:15;;;;;;;11.77;10.60;;;5.70;48.90;;;;;;20696;6846;123228;-87
2022/01/19 08:59:40;;;;;;;10.38;9.30;;;5.80;48.70;;;;;;20699;6846;118618;-88
2022/01/19 09:02:06;;;;;;;10.67;9.67;;;5.80;49.10;;;;;;20680;6846;150789;-87
2022/01/19 09:04:31;;;;;;;11.60;10.70;;;5.80;49.40;;;;;;20479;6846;327615;-87
2022/01/19 09:06:59;;;;;;;12.07;11.07;;;6.00;48.40;;;;;;20474;6846;338024;-86
2022/01/19 09:09:23;;;;;;;12.33;10.97;;;6.40;47.30;;;;;;20658;6846;117635;-88
2022/01/19 09:11:50;;;;;;;13.10;11.98;;;6.50;47.30;;;;;;20488;6846;307305;-88
2022/01/19 09:14:15;;;;;;;12.93;11.80;;;6.70;46.50;;;;;;20476;6846;327911;-86
2022/01/19 09:16:41;;;;;;;10.77;9.87;;;7.00;46.00;;;;;;20852;6592;119290;-86
2022/01/19 09:19:17;;;;;;;13.05;11.85;;;7.00;46.10;;;;;;20642;6740;338793;-82
2022/01/19 09:21:55;;;;;;;11.00;10.07;;;7.10;45.60;;;;;;20852;6747;116208;-88
2022/01/19 09:24:29;;;;;;;10.77;9.80;;;7.00;45.90;;;;;;20843;6747;117552;-85
2022/01/19 09:27:05;;;;;;;12.20;11.10;;;6.80;46.40;;;;;;20564;6765;278641;-82
2022/01/19 09:29:45;;;;;;;10.60;9.80;;;7.00;46.10;;;;;;20997;6717;121254;-88
2022/01/19 09:32:20;;;;;;;10.30;9.40;;;7.00;46.10;;;;;;20823;6811;119694;-85
2022/01/19 09:35:05;;;;;;;10.13;9.23;;;6.90;46.60;;;;;;20895;6748;116162;-86
2022/01/19 09:37:31;;;;;;;9.73;8.83;;;6.80;46.90;;;;;;20781;6747;120117;-83
2022/01/19 09:40:07;;;;;;;25.52;22.92;;;6.70;47.20;;;;;;20594;6750;277812;-84
2022/01/19 09:42:43;;;;;;;10.17;9.30;;;6.90;45.80;;;;;;20833;6748;117457;-84
2022/01/19 09:45:20;;;;;;;10.63;9.53;;;7.00;45.80;;;;;;20833;6748;117005;-85
2022/01/19 09:47:56;;;;;;;9.40;8.60;;;6.90;46.60;;;;;;20663;6763;117562;-83
2022/01/19 09:50:32;;;;;;;10.73;9.70;;;6.80;46.50;;;;;;20808;6748;119357;-83
2022/01/19 09:53:07;;;;;;;9.73;8.93;;;6.80;46.90;;;;;;20831;6747;116862;-81
2022/01/19 09:55:46;;;;;;;9.47;8.70;;;6.80;47.00;;;;;;20787;6765;117440;-82
2022/01/19 09:58:21;;;;;;;11.15;10.15;;;6.80;47.30;;;;;;20456;6746;317445;-83
2022/01/19 10:00:56;;;;;;;11.02;10.20;;;7.10;46.00;;;;;;20512;6780;319542;-82
2022/01/19 10:03:31;;;;;;;9.87;9.10;;;7.60;44.50;;;;;;20809;6761;118167;-82
2022/01/19 10:06:09;;;;;;;11.70;10.80;;;7.70;44.80;;;;;;20503;6769;336982;-86
2022/01/19 10:08:45;;;;;;;10.37;9.47;;;7.90;44.10;;;;;;20863;6736;118720;-81
2022/01/19 10:17:06;;;;;;;9.63;8.83;;;8.40;43.10;;;;;;20786;6736;118010;-82
2022/01/19 10:19:45;;;;;;;10.10;8.77;;;8.30;43.40;;;;;;20858;6736;116009;-86
2022/01/19 10:22:19;;;;;;;8.87;8.17;;;8.10;44.00;;;;;;20827;6736;117804;-85
2022/01/19 10:24:56;;;;;;;9.88;9.07;;;8.00;44.70;;;;;;20652;6736;332479;-82
2022/01/19 10:27:47;;;;;;;9.60;8.80;;;8.20;43.90;;;;;;20743;6745;119162;-84
2022/01/19 10:30:23;;;;;;;10.53;9.73;;;8.30;44.00;;;;;;20617;6744;276741;-83
2022/01/19 10:33:02;;;;;;;10.27;9.57;;;8.40;42.80;;;;;;20675;6741;278875;-82
2022/01/19 10:35:37;;;;;;;10.45;9.65;;;8.70;42.40;;;;;;20675;6725;306837;-84
2022/01/19 10:38:27;;;;;;;10.20;9.30;;;9.00;42.30;;;;;;20642;6720;117136;-83
2022/01/19 10:41:27;;;;;;;9.90;9.00;;;8.90;42.30;;;;;;20861;6792;115850;-80
2022/01/19 10:43:48;;;;;;;10.07;9.27;;;8.70;43.10;;;;;;20583;6797;306581;-87
2022/01/19 10:46:25;;;;;;;9.70;8.90;;;8.80;42.50;;;;;;20876;6704;117180;-83
2022/01/19 10:49:04;;;;;;;9.13;8.43;;;8.70;43.50;;;;;;20921;6734;116065;-81
2022/01/19 10:51:46;;;;;;;9.60;8.70;;;8.70;43.50;;;;;;20883;6790;118636;-83
2022/01/19 10:54:20;;;;;;;9.07;8.17;;;8.50;44.30;;;;;;20885;6734;120273;-80
2022/01/19 10:56:57;;;;;;;10.05;9.32;;;8.50;44.20;;;;;;20662;6711;336242;-85
2022/01/19 10:59:30;;;;;;;10.03;9.23;;;8.70;43.50;;;;;;20856;6746;116264;-81
2022/01/19 11:02:06;;;;;;;9.93;9.00;;;8.80;43.60;;;;;;20816;6759;117291;-81
2022/01/19 11:04:42;;;;;;;8.73;7.80;;;8.80;44.00;;;;;;20748;6785;117167;-81
2022/01/19 11:07:26;;;;;;;9.68;8.82;;;8.70;44.30;;;;;;20512;6766;308928;-82
2022/01/19 11:10:17;;;;;;;;;;;;;;;;;;;;;
2022/01/19 11:12:38;;;;;;;8.33;7.60;;;9.20;42.00;;;;;;20734;6815;120198;-82
2022/01/19 11:15:07;;;;;;;8.07;7.00;;;9.30;42.50;;;;;;20857;6759;119674;-83
2022/01/19 11:17:43;;;;;;;7.73;7.00;;;9.00;43.30;;;;;;20775;6745;117697;-81
2022/01/19 11:20:19;;;;;;;8.80;8.07;;;9.00;43.30;;;;;;20702;6730;334012;-80
2022/01/19 11:23:22;;;;;;;9.20;8.40;;;9.60;42.00;;;;;;20725;6730;308635;-82
2022/01/19 11:26:04;;;;;;;7.87;7.27;;;9.50;41.80;;;;;;20892;6752;116816;-86
2022/01/19 11:28:39;;;;;;;8.53;7.73;;;9.60;42.20;;;;;;20656;6795;296639;-82
2022/01/19 11:31:15;;;;;;;9.60;8.80;;;9.70;41.50;;;;;;20659;6749;339392;-82
2022/01/19 11:33:55;;;;;;;8.33;7.50;;;10.00;39.90;;;;;;20953;6732;116831;-82
2022/01/19 11:36:34;;;;;;;8.45;7.75;;;10.00;40.20;;;;;;20693;6726;342480;-82
2022/01/19 11:39:11;;;;;;;8.13;7.53;;;10.00;39.10;;;;;;20916;6745;72467;-81
2022/01/19 11:41:54;;;;;;;7.80;7.20;;;10.00;39.70;;;;;;20893;6746;121025;-82
2022/01/19 11:44:31;;;;;;;9.50;8.57;;;9.70;41.20;;;;;;20577;6763;307388;-81
2022/01/19 11:47:32;;;;;;;8.53;7.23;;;9.80;41.10;;;;;;20882;6723;117091;-81
2022/01/19 11:49:59;;;;;;;7.77;7.07;;;9.80;41.50;;;;;;20828;6731;117950;-80
2022/01/19 11:52:41;;;;;;;8.17;7.47;;;9.70;42.00;;;;;;20925;6722;116559;-83
2022/01/19 11:55:13;;;;;;;7.60;6.93;;;9.50;42.40;;;;;;20976;6722;116585;-81
2022/01/19 11:57:49;;;;;;;9.10;8.30;;;9.40;42.80;;;;;;20597;6722;336854;-80
2022/01/19 12:00:24;;;;;;;9.37;8.50;;;9.60;42.20;;;;;;20880;6782;119713;-79
2022/01/19 12:03:00;;;;;;;8.83;8.13;;;9.70;42.50;;;;;;20917;6736;116764;-80
2022/01/19 12:05:35;;;;;;;8.93;8.10;;;9.60;42.80;;;;;;20863;6800;117311;-82
2022/01/19 12:08:29;;;;;;;9.20;8.45;;;9.40;42.90;;;;;;20440;6758;283853;-81
2022/01/19 12:11:16;;;;;;;8.10;7.50;;;9.60;42.00;;;;;;20784;6770;116948;-79
2022/01/19 12:14:19;;;;;;;8.63;8.00;;;9.70;42.30;;;;;;20642;6766;307113;-81
2022/01/19 12:17:03;;;;;;;8.37;7.73;;;9.90;41.60;;;;;;20842;6747;117959;-82
2022/01/19 12:19:38;;;;;;;8.33;7.60;;;9.90;41.90;;;;;;20895;6751;118930;-86
2022/01/19 12:22:20;;;;;;;8.77;8.07;;;9.80;43.10;;;;;;20886;6732;121828;-83
2022/01/19 12:24:57;;;;;;;9.27;8.57;;;9.70;42.80;;;;;;20614;6743;283848;-82
2022/01/19 12:27:33;;;;;;;9.30;8.20;;;9.90;42.30;;;;;;20747;6749;117571;-81
2022/01/19 12:30:08;;;;;;;9.52;8.82;;;10.00;41.60;;;;;;20610;6759;281273;-82
2022/01/19 12:32:44;;;;;;;8.63;7.93;;;10.10;41.40;;;;;;20869;6745;117407;-82
2022/01/19 12:35:19;;;;;;;8.30;7.70;;;10.20;41.30;;;;;;20803;6767;117130;-82
2022/01/19 12:37:55;;;;;;;8.57;7.77;;;10.00;41.50;;;;;;20701;6740;118406;-82
2022/01/19 12:40:32;;;;;;;8.23;7.60;;;9.90;42.90;;;;;;20894;6719;117613;-82
2022/01/19 12:43:09;;;;;;;8.80;8.07;;;9.80;43.40;;;;;;20936;6725;117785;-81
2022/01/19 12:45:48;;;;;;;9.07;8.47;;;9.70;43.50;;;;;;20390;6811;307664;-82
2022/01/19 12:48:37;;;;;;;8.90;8.20;;;9.90;42.30;;;;;;20409;6745;278447;-82
2022/01/19 12:51:39;;;;;;;8.43;7.73;;;10.30;41.20;;;;;;20898;6726;117225;-82
2022/01/19 12:54:16;;;;;;;8.63;8.03;;;10.30;41.20;;;;;;20755;6708;303025;-82
2022/01/19 12:56:53;;;;;;;8.83;8.13;;;10.50;40.90;;;;;;20882;6725;117839;-82
2022/01/19 12:59:29;;;;;;;8.57;7.87;;;10.30;41.10;;;;;;20947;6723;116950;-82
2022/01/19 13:02:05;;;;;;;7.37;6.77;;;10.30;41.10;;;;;;20937;6723;117013;-85
2022/01/19 13:04:40;;;;;;;9.30;8.60;;;10.10;41.30;;;;;;20699;6736;305999;-81
2022/01/19 13:07:23;;;;;;;7.93;7.23;;;10.30;41.00;;;;;;20764;6751;120245;-82
2022/01/19 13:10:03;;;;;;;9.00;8.30;;;10.30;41.00;;;;;;20673;6736;279362;-83
2022/01/19 13:12:35;;;;;;;10.10;9.30;;;10.50;40.10;;;;;;20623;6754;304368;-83
2022/01/19 13:15:09;;;;;;;8.13;7.53;;;10.80;40.00;;;;;;20943;6723;116802;-82
2022/01/19 13:17:45;;;;;;;8.47;7.80;;;10.80;40.00;;;;;;20779;6738;118671;-82
2022/01/19 13:20:20;;;;;;;8.07;7.37;;;10.60;40.50;;;;;;20904;6718;116740;-90
2022/01/19 13:22:56;;;;;;;9.13;8.52;;;10.40;40.90;;;;;;20692;6733;334500;-82
2022/01/19 13:25:31;;;;;;;9.53;8.53;;;10.60;40.60;;;;;;20920;6736;116936;-82
2022/01/19 13:28:07;;;;;;;7.83;7.13;;;10.60;40.50;;;;;;20803;6718;119977;-80
2022/01/19 13:30:43;;;;;;;8.88;8.18;;;10.40;40.80;;;;;;20716;6718;337773;-81
2022/01/19 13:33:18;;;;;;;9.60;8.80;;;10.50;40.40;;;;;;20757;6718;308873;-81
2022/01/19 13:35:57;;;;;;;8.00;7.40;;;10.80;39.90;;;;;;20879;6736;117242;-80
2022/01/19 13:38:33;;;;;;;10.33;9.43;;;10.80;39.70;;;;;;20537;6775;310141;-81
2022/01/19 13:41:12;;;;;;;8.50;7.80;;;10.80;39.50;;;;;;20917;6727;116115;-81
2022/01/19 13:43:48;;;;;;;8.43;7.73;;;10.70;39.70;;;;;;20964;6727;116743;-82
2022/01/19 13:46:25;;;;;;;6.80;6.30;;;10.30;40.80;;;;;;20913;6727;117553;-80
2022/01/19 13:48:59;;;;;;;8.10;7.43;;;10.30;40.80;;;;;;20923;6739;118018;-82
2022/01/19 13:51:37;;;;;;;8.63;7.97;;;10.10;41.20;;;;;;20889;6749;118877;-82
2022/01/19 13:54:12;;;;;;;8.30;7.60;;;10.00;41.30;;;;;;20765;6762;118145;-82
2022/01/19 13:56:48;;;;;;;8.57;7.70;;;9.80;42.30;;;;;;20779;6761;117530;-82
2022/01/19 13:59:30;;;;;;;9.75;9.05;;;9.70;42.50;;;;;;20708;6728;332277;-82
2022/01/19 14:02:02;;;;;;;8.30;7.60;;;9.80;41.30;;;;;;20819;6763;117290;-82
2022/01/19 14:04:40;;;;;;;7.60;6.93;;;9.50;42.20;;;;;;20900;6735;119207;-81
2022/01/19 14:07:18;;;;;;;7.33;6.73;;;9.50;41.80;;;;;;20791;6749;117865;-82
2022/01/19 14:09:49;;;;;;;9.45;8.75;;;9.40;42.70;;;;;;20666;6748;321572;-82
2022/01/19 14:12:25;;;;;;;7.73;7.13;;;9.40;42.70;;;;;;20804;6755;116839;-82